sensor_id;sensor_type;location;lat;lon;timestamp;P1;P2;P0
46591;PMS6003;32314;48.748;9.656;2022-07-29T00:02:22;17.50;17.50;14.00
46591;PMS6003;32314;48.748;9.656;2022-07-29T00:05:13;18.25;17.00;14.25
46591;PMS6003;32314;48.748;9.656;2022-07-29T00:08:12;15.75;15.75;13.50
46591;PMS6003;32314;48.748;9.656;2022-07-29T00:11:08;16.00;15.00;13.50
46591;PMS6003;32314;48.748;9.656;2022-07-29T00:13:54;17.50;17.50;14.75
46591;PMS6003;32314;48.748;9.656;2022-07-29T00:16:50;17.00;17.00;13.25
46591;PMS6003;32314;48.748;9.656;2022-07-29T00:19:39;16.50;16.50;13.50
46591;PMS6003;32314;48.748;9.656;2022-07-29T00:22:36;18.00;18.00;15.00
46591;PMS6003;32314;48.748;9.656;2022-07-29T00:25:31;18.50;18.50;13.75
46591;PMS6003;32314;48.748;9.656;2022-07-29T00:28:29;16.75;16.75;15.00
46591;PMS6003;32314;48.748;9.656;2022-07-29T00:31:24;17.00;17.00;14.00
46591;PMS6003;32314;48.748;9.656;2022-07-29T00:34:20;18.00;18.00;16.00
46591;PMS6003;32314;48.748;9.656;2022-07-29T00:40:50;18.25;18.25;14.75
46591;PMS6003;32314;48.748;9.656;2022-07-29T00:43:47;15.50;15.50;14.00
46591;PMS6003;32314;48.748;9.656;2022-07-29T00:46:33;17.50;17.50;14.00
46591;PMS6003;32314;48.748;9.656;2022-07-29T00:49:29;17.50;17.50;14.25
46591;PMS6003;32314;48.748;9.656;2022-07-29T00:52:17;17.75;17.75;13.75
46591;PMS6003;32314;48.748;9.656;2022-07-29T00:55:07;18.25;16.50;14.00
46591;PMS6003;32314;48.748;9.656;2022-07-29T00:58:00;18.25;18.25;14.00
46591;PMS6003;32314;48.748;9.656;2022-07-29T01:01:02;20.00;20.00;15.75
46591;PMS6003;32314;48.748;9.656;2022-07-29T01:04:05;16.00;16.00;13.00
46591;PMS6003;32314;48.748;9.656;2022-07-29T01:07:07;18.00;18.00;14.00
46591;PMS6003;32314;48.748;9.656;2022-07-29T01:09:56;14.00;14.00;12.25
46591;PMS6003;32314;48.748;9.656;2022-07-29T01:12:43;14.00;14.00;12.75
46591;PMS6003;32314;48.748;9.656;2022-07-29T01:15:39;15.50;15.50;12.50
46591;PMS6003;32314;48.748;9.656;2022-07-29T01:18:37;17.25;17.25;13.75
46591;PMS6003;32314;48.748;9.656;2022-07-29T01:21:39;16.25;14.75;12.50
46591;PMS6003;32314;48.748;9.656;2022-07-29T01:25:05;12.00;12.00;11.25
46591;PMS6003;32314;48.748;9.656;2022-07-29T01:28:01;14.75;13.25;12.25
46591;PMS6003;32314;48.748;9.656;2022-07-29T01:31:08;12.00;11.25;9.50
46591;PMS6003;32314;48.748;9.656;2022-07-29T01:34:15;10.25;10.25;9.00
46591;PMS6003;32314;48.748;9.656;2022-07-29T01:40:36;11.50;11.50;9.00
46591;PMS6003;32314;48.748;9.656;2022-07-29T01:43:41;11.50;11.50;9.25
46591;PMS6003;32314;48.748;9.656;2022-07-29T01:46:32;10.50;10.50;9.00
46591;PMS6003;32314;48.748;9.656;2022-07-29T01:49:29;10.00;10.00;9.00
46591;PMS6003;32314;48.748;9.656;2022-07-29T01:52:27;12.75;11.75;9.25
46591;PMS6003;32314;48.748;9.656;2022-07-29T01:55:28;14.00;12.25;10.25
46591;PMS6003;32314;48.748;9.656;2022-07-29T01:58:17;16.50;13.25;11.00
46591;PMS6003;32314;48.748;9.656;2022-07-29T02:01:03;10.75;10.75;9.75
46591;PMS6003;32314;48.748;9.656;2022-07-29T02:03:57;12.00;12.00;10.25
46591;PMS6003;32314;48.748;9.656;2022-07-29T02:06:53;12.50;12.50;10.75
46591;PMS6003;32314;48.748;9.656;2022-07-29T02:09:40;13.00;13.00;11.00
46591;PMS6003;32314;48.748;9.656;2022-07-29T02:12:27;12.00;12.00;10.00
46591;PMS6003;32314;48.748;9.656;2022-07-29T02:15:14;12.75;12.75;10.75
46591;PMS6003;32314;48.748;9.656;2022-07-29T02:18:02;11.00;11.00;9.00
46591;PMS6003;32314;48.748;9.656;2022-07-29T02:20:53;10.00;10.00;9.50
46591;PMS6003;32314;48.748;9.656;2022-07-29T02:23:43;16.75;14.50;11.50
46591;PMS6003;32314;48.748;9.656;2022-07-29T02:26:42;10.75;10.75;9.75
46591;PMS6003;32314;48.748;9.656;2022-07-29T02:29:30;11.50;11.50;10.25
46591;PMS6003;32314;48.748;9.656;2022-07-29T02:32:23;13.25;12.00;11.00
46591;PMS6003;32314;48.748;9.656;2022-07-29T02:35:10;11.25;11.25;10.00
46591;PMS6003;32314;48.748;9.656;2022-07-29T02:38:04;12.75;12.75;11.00
46591;PMS6003;32314;48.748;9.656;2022-07-29T02:41:10;12.75;12.75;11.00
46591;PMS6003;32314;48.748;9.656;2022-07-29T02:44:08;15.50;15.50;12.75
46591;PMS6003;32314;48.748;9.656;2022-07-29T02:47:01;13.75;12.25;11.00
46591;PMS6003;32314;48.748;9.656;2022-07-29T02:49:57;13.00;13.00;11.75
46591;PMS6003;32314;48.748;9.656;2022-07-29T02:52:47;14.75;14.00;11.75
46591;PMS6003;32314;48.748;9.656;2022-07-29T02:55:45;11.50;11.50;9.25
46591;PMS6003;32314;48.748;9.656;2022-07-29T02:58:42;12.50;12.50;10.50
46591;PMS6003;32314;48.748;9.656;2022-07-29T03:04:22;13.00;13.00;10.00
46591;PMS6003;32314;48.748;9.656;2022-07-29T03:07:13;15.00;13.75;10.75
46591;PMS6003;32314;48.748;9.656;2022-07-29T03:10:03;11.50;11.50;8.50
46591;PMS6003;32314;48.748;9.656;2022-07-29T03:13:04;13.00;13.00;11.00
46591;PMS6003;32314;48.748;9.656;2022-07-29T03:15:55;11.50;11.50;10.75
46591;PMS6003;32314;48.748;9.656;2022-07-29T03:18:43;14.00;13.50;11.75
46591;PMS6003;32314;48.748;9.656;2022-07-29T03:21:31;16.25;14.50;12.25
46591;PMS6003;32314;48.748;9.656;2022-07-29T03:24:24;12.00;10.50;8.00
46591;PMS6003;32314;48.748;9.656;2022-07-29T03:27:14;14.75;14.75;11.50
46591;PMS6003;32314;48.748;9.656;2022-07-29T03:30:00;12.50;12.25;10.25
46591;PMS6003;32314;48.748;9.656;2022-07-29T03:32:45;13.25;13.00;11.00
46591;PMS6003;32314;48.748;9.656;2022-07-29T03:35:31;12.75;12.75;11.25
46591;PMS6003;32314;48.748;9.656;2022-07-29T03:41:13;11.00;11.00;9.00
46591;PMS6003;32314;48.748;9.656;2022-07-29T03:44:00;13.25;13.25;11.00
46591;PMS6003;32314;48.748;9.656;2022-07-29T03:46:46;12.25;12.25;11.00
46591;PMS6003;32314;48.748;9.656;2022-07-29T03:49:37;10.25;10.25;9.00
46591;PMS6003;32314;48.748;9.656;2022-07-29T03:52:24;14.25;14.25;12.00
46591;PMS6003;32314;48.748;9.656;2022-07-29T03:55:10;12.00;12.00;10.00
46591;PMS6003;32314;48.748;9.656;2022-07-29T03:57:55;12.00;12.00;10.00
46591;PMS6003;32314;48.748;9.656;2022-07-29T04:00:42;11.00;11.00;10.25
46591;PMS6003;32314;48.748;9.656;2022-07-29T04:03:29;12.00;12.00;10.75
46591;PMS6003;32314;48.748;9.656;2022-07-29T04:06:15;12.00;12.00;10.00
46591;PMS6003;32314;48.748;9.656;2022-07-29T04:09:00;14.00;14.00;10.75
46591;PMS6003;32314;48.748;9.656;2022-07-29T04:11:46;10.50;10.50;9.00
46591;PMS6003;32314;48.748;9.656;2022-07-29T04:14:32;13.75;13.75;11.00
46591;PMS6003;32314;48.748;9.656;2022-07-29T04:17:18;14.75;13.25;11.00
46591;PMS6003;32314;48.748;9.656;2022-07-29T04:20:04;13.75;12.50;11.00
46591;PMS6003;32314;48.748;9.656;2022-07-29T04:22:51;11.00;11.00;10.00
46591;PMS6003;32314;48.748;9.656;2022-07-29T04:25:37;12.25;10.75;9.00
46591;PMS6003;32314;48.748;9.656;2022-07-29T04:28:24;12.25;12.25;10.00
46591;PMS6003;32314;48.748;9.656;2022-07-29T04:31:11;10.25;10.25;9.75
46591;PMS6003;32314;48.748;9.656;2022-07-29T04:33:58;12.00;12.00;9.75
46591;PMS6003;32314;48.748;9.656;2022-07-29T04:36:44;14.75;13.25;12.00
46591;PMS6003;32314;48.748;9.656;2022-07-29T04:39:29;13.00;11.00;8.00
46591;PMS6003;32314;48.748;9.656;2022-07-29T04:42:15;12.25;12.25;10.00
46591;PMS6003;32314;48.748;9.656;2022-07-29T04:45:01;10.25;10.25;9.50
46591;PMS6003;32314;48.748;9.656;2022-07-29T04:47:47;13.25;11.25;10.00
46591;PMS6003;32314;48.748;9.656;2022-07-29T04:50:33;15.25;15.25;12.00
46591;PMS6003;32314;48.748;9.656;2022-07-29T04:53:19;11.75;11.75;10.00
46591;PMS6003;32314;48.748;9.656;2022-07-29T04:56:05;12.00;12.00;10.75
46591;PMS6003;32314;48.748;9.656;2022-07-29T04:59:13;14.00;13.00;12.00
46591;PMS6003;32314;48.748;9.656;2022-07-29T05:02:01;12.50;12.50;11.00
46591;PMS6003;32314;48.748;9.656;2022-07-29T05:04:48;11.25;11.25;10.00
46591;PMS6003;32314;48.748;9.656;2022-07-29T05:07:34;13.25;13.00;10.75
46591;PMS6003;32314;48.748;9.656;2022-07-29T05:10:20;13.00;13.00;11.25
46591;PMS6003;32314;48.748;9.656;2022-07-29T05:13:07;10.50;10.50;8.00
46591;PMS6003;32314;48.748;9.656;2022-07-29T05:15:53;13.00;12.75;10.75
46591;PMS6003;32314;48.748;9.656;2022-07-29T05:18:39;12.25;11.50;10.00
46591;PMS6003;32314;48.748;9.656;2022-07-29T05:21:25;11.75;9.75;8.75
46591;PMS6003;32314;48.748;9.656;2022-07-29T05:24:11;13.50;13.50;10.00
46591;PMS6003;32314;48.748;9.656;2022-07-29T05:26:59;9.50;9.50;9.00
46591;PMS6003;32314;48.748;9.656;2022-07-29T05:29:48;12.00;11.00;10.00
46591;PMS6003;32314;48.748;9.656;2022-07-29T05:32:34;11.25;11.25;9.00
46591;PMS6003;32314;48.748;9.656;2022-07-29T05:35:20;12.25;12.25;10.00
46591;PMS6003;32314;48.748;9.656;2022-07-29T05:38:08;12.25;11.00;10.75
46591;PMS6003;32314;48.748;9.656;2022-07-29T05:40:55;11.00;11.00;9.00
46591;PMS6003;32314;48.748;9.656;2022-07-29T05:43:45;13.00;13.00;11.00
46591;PMS6003;32314;48.748;9.656;2022-07-29T05:46:31;14.50;12.25;11.25
46591;PMS6003;32314;48.748;9.656;2022-07-29T05:49:17;11.00;11.00;9.25
46591;PMS6003;32314;48.748;9.656;2022-07-29T05:52:09;12.75;12.75;11.25
46591;PMS6003;32314;48.748;9.656;2022-07-29T05:54:55;13.25;13.25;11.00
46591;PMS6003;32314;48.748;9.656;2022-07-29T05:57:42;13.50;13.50;11.50
46591;PMS6003;32314;48.748;9.656;2022-07-29T06:00:35;12.00;11.75;10.00
46591;PMS6003;32314;48.748;9.656;2022-07-29T06:03:20;16.25;15.25;13.00
46591;PMS6003;32314;48.748;9.656;2022-07-29T06:06:07;13.00;12.50;10.00
46591;PMS6003;32314;48.748;9.656;2022-07-29T06:08:53;13.25;13.25;11.75
46591;PMS6003;32314;48.748;9.656;2022-07-29T06:11:41;13.00;13.00;11.25
46591;PMS6003;32314;48.748;9.656;2022-07-29T06:14:27;16.25;16.25;12.50
46591;PMS6003;32314;48.748;9.656;2022-07-29T06:17:15;15.50;15.50;12.50
46591;PMS6003;32314;48.748;9.656;2022-07-29T06:20:04;14.25;13.50;12.00
46591;PMS6003;32314;48.748;9.656;2022-07-29T06:22:51;13.75;13.75;12.00
46591;PMS6003;32314;48.748;9.656;2022-07-29T06:25:37;14.50;14.50;13.00
46591;PMS6003;32314;48.748;9.656;2022-07-29T06:28:23;13.00;13.00;11.00
46591;PMS6003;32314;48.748;9.656;2022-07-29T06:31:09;12.75;12.75;12.00
46591;PMS6003;32314;48.748;9.656;2022-07-29T06:33:55;15.50;15.50;12.00
46591;PMS6003;32314;48.748;9.656;2022-07-29T06:36:41;16.00;16.00;13.00
46591;PMS6003;32314;48.748;9.656;2022-07-29T06:42:16;15.00;15.00;12.25
46591;PMS6003;32314;48.748;9.656;2022-07-29T06:45:03;14.00;14.00;12.50
46591;PMS6003;32314;48.748;9.656;2022-07-29T06:47:49;13.00;13.00;11.50
46591;PMS6003;32314;48.748;9.656;2022-07-29T06:50:35;17.00;17.00;13.00
46591;PMS6003;32314;48.748;9.656;2022-07-29T06:53:21;15.50;15.50;13.00
46591;PMS6003;32314;48.748;9.656;2022-07-29T06:56:07;14.25;14.25;13.00
46591;PMS6003;32314;48.748;9.656;2022-07-29T06:58:58;13.75;13.75;11.00
46591;PMS6003;32314;48.748;9.656;2022-07-29T07:02:02;12.75;12.75;10.75
46591;PMS6003;32314;48.748;9.656;2022-07-29T07:04:47;12.25;12.25;11.25
46591;PMS6003;32314;48.748;9.656;2022-07-29T07:07:33;12.50;12.50;10.50
46591;PMS6003;32314;48.748;9.656;2022-07-29T07:10:19;11.75;11.75;10.50
46591;PMS6003;32314;48.748;9.656;2022-07-29T07:13:05;12.50;11.25;9.75
46591;PMS6003;32314;48.748;9.656;2022-07-29T07:15:51;12.25;12.25;11.75
46591;PMS6003;32314;48.748;9.656;2022-07-29T07:18:44;10.75;10.00;8.25
46591;PMS6003;32314;48.748;9.656;2022-07-29T07:21:33;10.50;10.50;9.00
46591;PMS6003;32314;48.748;9.656;2022-07-29T07:24:19;9.50;8.50;7.00
46591;PMS6003;32314;48.748;9.656;2022-07-29T07:27:05;9.25;9.25;8.00
46591;PMS6003;32314;48.748;9.656;2022-07-29T07:29:50;9.50;9.50;8.50
46591;PMS6003;32314;48.748;9.656;2022-07-29T07:32:36;9.00;9.00;7.25
46591;PMS6003;32314;48.748;9.656;2022-07-29T07:35:22;7.25;7.25;7.00
46591;PMS6003;32314;48.748;9.656;2022-07-29T07:38:08;9.50;7.75;7.00
46591;PMS6003;32314;48.748;9.656;2022-07-29T07:40:54;6.00;6.00;4.75
46591;PMS6003;32314;48.748;9.656;2022-07-29T07:43:40;7.00;6.00;5.50
46591;PMS6003;32314;48.748;9.656;2022-07-29T07:46:26;6.25;6.25;4.75
46591;PMS6003;32314;48.748;9.656;2022-07-29T07:49:14;6.50;6.50;6.00
46591;PMS6003;32314;48.748;9.656;2022-07-29T07:52:00;6.50;6.50;6.00
46591;PMS6003;32314;48.748;9.656;2022-07-29T07:54:46;5.25;5.25;5.25
46591;PMS6003;32314;48.748;9.656;2022-07-29T07:57:33;4.25;4.25;4.00
46591;PMS6003;32314;48.748;9.656;2022-07-29T08:00:20;4.50;4.50;4.00
46591;PMS6003;32314;48.748;9.656;2022-07-29T08:03:06;6.50;5.00;4.75
46591;PMS6003;32314;48.748;9.656;2022-07-29T08:05:52;8.00;7.00;5.00
46591;PMS6003;32314;48.748;9.656;2022-07-29T08:08:39;5.25;5.25;4.75
46591;PMS6003;32314;48.748;9.656;2022-07-29T08:11:25;6.00;6.00;5.00
46591;PMS6003;32314;48.748;9.656;2022-07-29T08:14:11;5.50;5.50;4.75
46591;PMS6003;32314;48.748;9.656;2022-07-29T08:16:57;4.00;4.00;4.00
46591;PMS6003;32314;48.748;9.656;2022-07-29T08:19:43;6.25;6.25;5.75
46591;PMS6003;32314;48.748;9.656;2022-07-29T08:22:28;8.00;8.00;7.75
46591;PMS6003;32314;48.748;9.656;2022-07-29T08:25:14;6.00;6.00;6.00
46591;PMS6003;32314;48.748;9.656;2022-07-29T08:28:00;6.00;6.00;6.00
46591;PMS6003;32314;48.748;9.656;2022-07-29T08:30:46;7.00;7.00;6.75
46591;PMS6003;32314;48.748;9.656;2022-07-29T08:33:32;5.75;5.75;5.25
46591;PMS6003;32314;48.748;9.656;2022-07-29T08:36:18;5.00;5.00;5.00
46591;PMS6003;32314;48.748;9.656;2022-07-29T08:39:06;5.75;4.50;4.25
46591;PMS6003;32314;48.748;9.656;2022-07-29T08:41:52;6.75;6.75;6.00
46591;PMS6003;32314;48.748;9.656;2022-07-29T08:44:38;6.75;6.75;6.50
46591;PMS6003;32314;48.748;9.656;2022-07-29T08:47:24;9.50;8.50;7.50
46591;PMS6003;32314;48.748;9.656;2022-07-29T08:50:11;7.00;7.00;6.00
46591;PMS6003;32314;48.748;9.656;2022-07-29T08:52:57;7.00;7.00;7.00
46591;PMS6003;32314;48.748;9.656;2022-07-29T08:55:44;9.50;9.50;8.50
46591;PMS6003;32314;48.748;9.656;2022-07-29T08:58:32;8.25;8.25;7.50
46591;PMS6003;32314;48.748;9.656;2022-07-29T09:04:10;7.00;7.00;7.00
46591;PMS6003;32314;48.748;9.656;2022-07-29T09:06:59;6.50;6.50;5.75
46591;PMS6003;32314;48.748;9.656;2022-07-29T09:09:55;8.00;8.00;7.00
46591;PMS6003;32314;48.748;9.656;2022-07-29T09:12:44;8.50;8.50;7.25
46591;PMS6003;32314;48.748;9.656;2022-07-29T09:15:30;8.75;8.75;8.00
46591;PMS6003;32314;48.748;9.656;2022-07-29T09:18:39;9.00;9.00;7.50
46591;PMS6003;32314;48.748;9.656;2022-07-29T09:21:26;10.33;10.33;9.00
46591;PMS6003;32314;48.748;9.656;2022-07-29T09:24:45;8.75;8.75;7.75
46591;PMS6003;32314;48.748;9.656;2022-07-29T09:27:32;11.00;9.75;9.50
46591;PMS6003;32314;48.748;9.656;2022-07-29T09:30:19;14.00;11.00;9.67
46591;PMS6003;32314;48.748;9.656;2022-07-29T09:33:07;8.50;7.25;5.25
46591;PMS6003;32314;48.748;9.656;2022-07-29T09:36:05;9.33;9.33;8.33
46591;PMS6003;32314;48.748;9.656;2022-07-29T09:39:01;12.00;11.25;9.25
46591;PMS6003;32314;48.748;9.656;2022-07-29T09:41:54;13.00;13.00;11.00
46591;PMS6003;32314;48.748;9.656;2022-07-29T09:44:46;12.33;12.33;10.33
46591;PMS6003;32314;48.748;9.656;2022-07-29T09:47:41;10.33;10.33;8.67
46591;PMS6003;32314;48.748;9.656;2022-07-29T09:50:36;8.00;8.00;8.00
46591;PMS6003;32314;48.748;9.656;2022-07-29T09:53:30;10.00;9.33;7.33
46591;PMS6003;32314;48.748;9.656;2022-07-29T09:56:18;11.33;11.33;11.00
46591;PMS6003;32314;48.748;9.656;2022-07-29T10:01:54;12.67;12.67;11.00
46591;PMS6003;32314;48.748;9.656;2022-07-29T10:04:45;13.00;12.00;10.00
46591;PMS6003;32314;48.748;9.656;2022-07-29T10:10:30;13.00;13.00;12.00
46591;PMS6003;32314;48.748;9.656;2022-07-29T10:13:19;11.00;9.33;8.33
46591;PMS6003;32314;48.748;9.656;2022-07-29T10:16:05;12.00;12.00;11.00
46591;PMS6003;32314;48.748;9.656;2022-07-29T10:18:51;15.33;13.67;11.33
46591;PMS6003;32314;48.748;9.656;2022-07-29T10:21:37;11.00;11.00;10.00
46591;PMS6003;32314;48.748;9.656;2022-07-29T10:24:29;10.00;10.00;9.67
46591;PMS6003;32314;48.748;9.656;2022-07-29T10:27:15;13.67;12.33;10.67
46591;PMS6003;32314;48.748;9.656;2022-07-29T10:30:01;14.67;13.67;12.00
46591;PMS6003;32314;48.748;9.656;2022-07-29T10:32:54;12.00;12.00;11.00
46591;PMS6003;32314;48.748;9.656;2022-07-29T10:41:55;12.00;12.00;11.00
46591;PMS6003;32314;48.748;9.656;2022-07-29T10:44:47;11.67;11.67;11.00
46591;PMS6003;32314;48.748;9.656;2022-07-29T10:47:33;13.33;13.33;12.00
46591;PMS6003;32314;48.748;9.656;2022-07-29T10:50:19;11.00;11.00;10.67
46591;PMS6003;32314;48.748;9.656;2022-07-29T10:53:05;11.67;11.67;10.00
46591;PMS6003;32314;48.748;9.656;2022-07-29T10:55:54;12.00;12.00;10.33
46591;PMS6003;32314;48.748;9.656;2022-07-29T10:58:40;14.00;13.00;11.00
46591;PMS6003;32314;48.748;9.656;2022-07-29T11:01:36;11.00;11.00;10.00
46591;PMS6003;32314;48.748;9.656;2022-07-29T11:11:30;12.00;12.00;10.00
46591;PMS6003;32314;48.748;9.656;2022-07-29T11:14:10;12.33;12.33;11.00
46591;PMS6003;32314;48.748;9.656;2022-07-29T11:17:04;11.33;11.33;11.00
46591;PMS6003;32314;48.748;9.656;2022-07-29T11:19:51;11.00;11.00;10.00
46591;PMS6003;32314;48.748;9.656;2022-07-29T11:22:37;13.67;13.67;12.00
46591;PMS6003;32314;48.748;9.656;2022-07-29T11:25:23;13.00;13.00;11.67
46591;PMS6003;32314;48.748;9.656;2022-07-29T11:28:17;14.00;14.00;12.67
46591;PMS6003;32314;48.748;9.656;2022-07-29T11:31:04;14.67;13.00;11.00
46591;PMS6003;32314;48.748;9.656;2022-07-29T11:33:51;17.00;14.67;12.67
46591;PMS6003;32314;48.748;9.656;2022-07-29T11:36:41;15.33;13.33;12.00
46591;PMS6003;32314;48.748;9.656;2022-07-29T11:42:50;14.00;14.00;12.00
46591;PMS6003;32314;48.748;9.656;2022-07-29T11:45:44;11.67;11.67;11.00
46591;PMS6003;32314;48.748;9.656;2022-07-29T11:48:31;12.67;11.67;11.00
46591;PMS6003;32314;48.748;9.656;2022-07-29T11:51:18;15.67;14.67;13.00
46591;PMS6003;32314;48.748;9.656;2022-07-29T11:54:04;4.67;4.67;3.00
46591;PMS6003;32314;48.748;9.656;2022-07-29T11:56:51;13.67;13.33;12.00
46591;PMS6003;32314;48.748;9.656;2022-07-29T11:59:41;13.00;13.00;12.00
46591;PMS6003;32314;48.748;9.656;2022-07-29T12:08:23;19.25;15.75;10.75
46591;PMS6003;32314;48.748;9.656;2022-07-29T12:11:15;14.25;14.25;11.25
46591;PMS6003;32314;48.748;9.656;2022-07-29T12:14:02;15.00;15.00;12.25
46591;PMS6003;32314;48.748;9.656;2022-07-29T12:16:48;12.75;12.75;11.75
46591;PMS6003;32314;48.748;9.656;2022-07-29T12:19:41;14.75;14.75;13.75
46591;PMS6003;32314;48.748;9.656;2022-07-29T12:22:40;14.25;14.25;13.00
46591;PMS6003;32314;48.748;9.656;2022-07-29T12:25:27;12.25;12.25;11.75
46591;PMS6003;32314;48.748;9.656;2022-07-29T12:28:13;16.00;16.00;13.00
46591;PMS6003;32314;48.748;9.656;2022-07-29T12:31:12;15.50;15.50;13.75
46591;PMS6003;32314;48.748;9.656;2022-07-29T12:36:50;16.00;16.00;14.50
46591;PMS6003;32314;48.748;9.656;2022-07-29T12:39:37;16.25;16.25;15.00
46591;PMS6003;32314;48.748;9.656;2022-07-29T12:42:23;14.50;14.50;13.00
46591;PMS6003;32314;48.748;9.656;2022-07-29T12:45:09;16.50;16.50;14.00
46591;PMS6003;32314;48.748;9.656;2022-07-29T12:47:55;14.25;14.25;12.00
46591;PMS6003;32314;48.748;9.656;2022-07-29T12:50:57;13.75;12.25;11.00
46591;PMS6003;32314;48.748;9.656;2022-07-29T12:54:01;14.25;14.25;13.00
46591;PMS6003;32314;48.748;9.656;2022-07-29T12:56:59;14.50;14.50;13.00
46591;PMS6003;32314;48.748;9.656;2022-07-29T12:59:45;13.00;13.00;12.00
46591;PMS6003;32314;48.748;9.656;2022-07-29T13:05:44;11.50;11.50;10.75
46591;PMS6003;32314;48.748;9.656;2022-07-29T13:08:31;8.50;8.50;8.00
46591;PMS6003;32314;48.748;9.656;2022-07-29T13:11:27;7.00;7.00;6.00
46591;PMS6003;32314;48.748;9.656;2022-07-29T13:14:32;8.25;7.00;6.00
46591;PMS6003;32314;48.748;9.656;2022-07-29T13:17:20;10.00;9.50;8.00
46591;PMS6003;32314;48.748;9.656;2022-07-29T13:20:11;6.00;6.00;5.50
46591;PMS6003;32314;48.748;9.656;2022-07-29T13:22:59;6.00;6.00;6.00
46591;PMS6003;32314;48.748;9.656;2022-07-29T13:25:45;5.50;5.50;5.25
46591;PMS6003;32314;48.748;9.656;2022-07-29T13:28:31;4.75;4.75;4.50
46591;PMS6003;32314;48.748;9.656;2022-07-29T13:31:17;4.75;4.75;4.75
46591;PMS6003;32314;48.748;9.656;2022-07-29T13:34:03;5.25;5.25;4.25
46591;PMS6003;32314;48.748;9.656;2022-07-29T13:36:49;6.75;6.75;6.75
46591;PMS6003;32314;48.748;9.656;2022-07-29T13:39:35;8.25;7.00;6.75
46591;PMS6003;32314;48.748;9.656;2022-07-29T13:42:23;7.75;7.75;7.75
46591;PMS6003;32314;48.748;9.656;2022-07-29T13:45:09;9.00;9.00;8.00
46591;PMS6003;32314;48.748;9.656;2022-07-29T13:47:56;7.75;7.75;7.00
46591;PMS6003;32314;48.748;9.656;2022-07-29T13:50:42;7.00;7.00;6.25
46591;PMS6003;32314;48.748;9.656;2022-07-29T13:53:27;8.00;8.00;7.00
46591;PMS6003;32314;48.748;9.656;2022-07-29T13:56:14;7.50;7.50;7.00
46591;PMS6003;32314;48.748;9.656;2022-07-29T13:58:59;9.25;9.00;8.00
46591;PMS6003;32314;48.748;9.656;2022-07-29T14:01:45;9.00;9.00;8.00
46591;PMS6003;32314;48.748;9.656;2022-07-29T14:04:31;7.75;7.75;7.00
46591;PMS6003;32314;48.748;9.656;2022-07-29T14:07:18;8.75;8.75;8.50
46591;PMS6003;32314;48.748;9.656;2022-07-29T14:10:04;3.00;3.00;2.00
46591;PMS6003;32314;48.748;9.656;2022-07-29T14:12:51;10.00;10.00;9.00
46591;PMS6003;32314;48.748;9.656;2022-07-29T14:15:37;10.00;10.00;7.75
46591;PMS6003;32314;48.748;9.656;2022-07-29T14:18:23;7.25;7.25;6.00
46591;PMS6003;32314;48.748;9.656;2022-07-29T14:21:09;9.75;9.75;8.75
46591;PMS6003;32314;48.748;9.656;2022-07-29T14:23:54;8.00;8.00;6.75
46591;PMS6003;32314;48.748;9.656;2022-07-29T14:26:40;9.00;9.00;7.25
46591;PMS6003;32314;48.748;9.656;2022-07-29T14:29:27;10.75;10.25;8.50
46591;PMS6003;32314;48.748;9.656;2022-07-29T14:32:13;8.00;8.00;7.25
46591;PMS6003;32314;48.748;9.656;2022-07-29T14:35:00;11.00;11.00;10.00
46591;PMS6003;32314;48.748;9.656;2022-07-29T14:37:46;8.25;8.00;8.00
46591;PMS6003;32314;48.748;9.656;2022-07-29T14:40:32;10.50;10.50;10.00
46591;PMS6003;32314;48.748;9.656;2022-07-29T14:43:17;8.00;8.00;7.00
46591;PMS6003;32314;48.748;9.656;2022-07-29T14:46:03;9.00;9.00;7.25
46591;PMS6003;32314;48.748;9.656;2022-07-29T14:48:49;9.00;9.00;7.75
46591;PMS6003;32314;48.748;9.656;2022-07-29T14:51:35;11.00;9.50;8.00
46591;PMS6003;32314;48.748;9.656;2022-07-29T14:54:21;10.75;10.75;9.00
46591;PMS6003;32314;48.748;9.656;2022-07-29T14:57:07;10.00;10.00;8.00
46591;PMS6003;32314;48.748;9.656;2022-07-29T14:59:53;11.00;10.00;9.00
46591;PMS6003;32314;48.748;9.656;2022-07-29T15:02:39;4.25;4.25;4.00
46591;PMS6003;32314;48.748;9.656;2022-07-29T15:05:25;9.00;9.00;8.25
46591;PMS6003;32314;48.748;9.656;2022-07-29T15:08:12;9.50;9.50;9.50
46591;PMS6003;32314;48.748;9.656;2022-07-29T15:10:57;10.00;10.00;8.25
46591;PMS6003;32314;48.748;9.656;2022-07-29T15:13:44;10.50;10.50;9.25
46591;PMS6003;32314;48.748;9.656;2022-07-29T15:16:30;10.25;9.75;8.75
46591;PMS6003;32314;48.748;9.656;2022-07-29T15:19:16;10.00;10.00;9.00
46591;PMS6003;32314;48.748;9.656;2022-07-29T15:22:02;9.00;9.00;7.75
46591;PMS6003;32314;48.748;9.656;2022-07-29T15:24:49;11.75;11.75;10.00
46591;PMS6003;32314;48.748;9.656;2022-07-29T15:27:35;9.00;9.00;8.50
46591;PMS6003;32314;48.748;9.656;2022-07-29T15:30:21;9.00;9.00;8.00
46591;PMS6003;32314;48.748;9.656;2022-07-29T15:33:07;10.50;10.50;9.50
46591;PMS6003;32314;48.748;9.656;2022-07-29T15:35:57;9.75;9.75;8.00
46591;PMS6003;32314;48.748;9.656;2022-07-29T15:38:43;10.00;10.00;9.00
46591;PMS6003;32314;48.748;9.656;2022-07-29T15:41:30;11.50;11.50;9.25
46591;PMS6003;32314;48.748;9.656;2022-07-29T15:44:16;12.00;12.00;10.00
46591;PMS6003;32314;48.748;9.656;2022-07-29T15:47:03;10.00;10.00;9.00
46591;PMS6003;32314;48.748;9.656;2022-07-29T15:49:49;11.00;11.00;9.25
46591;PMS6003;32314;48.748;9.656;2022-07-29T15:52:35;10.50;10.50;10.00
46591;PMS6003;32314;48.748;9.656;2022-07-29T15:55:21;11.00;11.00;10.75
46591;PMS6003;32314;48.748;9.656;2022-07-29T15:58:06;11.25;11.25;9.75
46591;PMS6003;32314;48.748;9.656;2022-07-29T16:00:52;11.00;10.50;9.00
46591;PMS6003;32314;48.748;9.656;2022-07-29T16:06:42;13.00;13.00;12.00
46591;PMS6003;32314;48.748;9.656;2022-07-29T16:09:29;11.00;11.00;10.00
46591;PMS6003;32314;48.748;9.656;2022-07-29T16:12:15;11.50;11.50;10.00
46591;PMS6003;32314;48.748;9.656;2022-07-29T16:15:01;11.00;11.00;9.75
46591;PMS6003;32314;48.748;9.656;2022-07-29T16:17:47;12.75;11.75;9.75
46591;PMS6003;32314;48.748;9.656;2022-07-29T16:20:37;11.50;11.50;10.50
46591;PMS6003;32314;48.748;9.656;2022-07-29T16:23:23;11.75;11.75;9.25
46591;PMS6003;32314;48.748;9.656;2022-07-29T16:26:10;10.00;10.00;8.75
46591;PMS6003;32314;48.748;9.656;2022-07-29T16:28:56;11.00;10.75;9.50
46591;PMS6003;32314;48.748;9.656;2022-07-29T16:31:42;10.50;10.50;9.75
46591;PMS6003;32314;48.748;9.656;2022-07-29T16:34:28;12.75;12.75;10.50
46591;PMS6003;32314;48.748;9.656;2022-07-29T16:37:17;9.50;9.50;8.00
46591;PMS6003;32314;48.748;9.656;2022-07-29T16:40:03;10.25;10.25;8.50
46591;PMS6003;32314;48.748;9.656;2022-07-29T16:42:50;11.00;11.00;10.00
46591;PMS6003;32314;48.748;9.656;2022-07-29T16:45:36;13.00;13.00;11.00
46591;PMS6003;32314;48.748;9.656;2022-07-29T16:48:22;12.50;11.00;10.25
46591;PMS6003;32314;48.748;9.656;2022-07-29T16:51:08;14.00;14.00;12.00
46591;PMS6003;32314;48.748;9.656;2022-07-29T16:53:54;17.00;15.00;13.00
46591;PMS6003;32314;48.748;9.656;2022-07-29T16:56:40;11.00;11.00;10.00